createdAt,value
2018-03-07T00:01:54.924Z,23.47
2018-03-07T00:04:22.457Z,23.70
2018-03-07T00:06:50.765Z,24.13
2018-03-07T00:09:18.311Z,22.23
2018-03-07T00:11:46.616Z,23.80
2018-03-07T00:14:14.168Z,23.40
2018-03-07T00:16:41.693Z,22.50
2018-03-07T00:19:09.246Z,21.67
2018-03-07T00:21:36.776Z,24.30
2018-03-07T00:24:04.327Z,20.63
2018-03-07T00:26:31.861Z,23.83
2018-03-07T00:29:00.177Z,23.07
2018-03-07T00:31:27.693Z,21.27
2018-03-07T00:33:55.981Z,22.33
2018-03-07T00:36:23.509Z,21.17
2018-03-07T00:38:51.041Z,22.27
2018-03-07T00:41:18.584Z,21.50
2018-03-07T00:43:46.106Z,21.37
2018-03-07T00:46:14.415Z,22.00
2018-03-07T00:48:41.936Z,23.93
2018-03-07T00:51:10.238Z,23.80
2018-03-07T00:53:37.760Z,23.43
2018-03-07T00:56:05.296Z,21.97
2018-03-07T00:58:32.812Z,24.23
2018-03-07T01:01:00.369Z,22.33
2018-03-07T01:03:27.901Z,22.93
2018-03-07T01:05:55.462Z,22.27
2018-03-07T01:08:22.988Z,22.30
2018-03-07T01:10:50.534Z,23.17
2018-03-07T01:13:18.081Z,21.30
2018-03-07T01:15:45.603Z,22.80
2018-03-07T01:18:13.920Z,21.37
2018-03-07T01:20:41.444Z,24.13
2018-03-07T01:23:08.980Z,21.93
2018-03-07T01:25:36.504Z,23.07
2018-03-07T01:28:04.042Z,22.80
2018-03-07T01:30:32.340Z,22.67
2018-03-07T01:32:59.882Z,22.80
2018-03-07T01:35:28.824Z,22.30
2018-03-07T01:37:56.394Z,23.03
2018-03-07T01:40:23.919Z,23.07
2018-03-07T01:42:51.477Z,21.87
2018-03-07T01:45:19.001Z,22.90
2018-03-07T01:47:47.292Z,22.07
2018-03-07T01:50:15.603Z,22.90
2018-03-07T01:52:43.137Z,22.00
2018-03-07T01:55:10.684Z,22.63
2018-03-07T01:57:38.965Z,22.03
2018-03-07T02:00:07.271Z,21.53
2018-03-07T02:02:34.808Z,22.77
2018-03-07T02:05:03.116Z,21.33
2018-03-07T02:07:30.637Z,21.07
2018-03-07T02:09:58.954Z,21.17
2018-03-07T02:12:26.478Z,21.30
2018-03-07T02:14:54.807Z,22.70
2018-03-07T02:17:22.334Z,21.13
2018-03-07T02:19:49.856Z,21.30
2018-03-07T02:22:17.413Z,22.23
2018-03-07T02:24:44.937Z,22.13
2018-03-07T02:27:12.472Z,20.30
2018-03-07T02:29:40.007Z,22.40
2018-03-07T02:32:07.537Z,23.23
2018-03-07T02:34:35.071Z,22.87
2018-03-07T02:37:02.608Z,24.60
2018-03-07T02:39:30.135Z,22.13
2018-03-07T02:41:57.702Z,20.93
2018-03-07T02:44:25.993Z,21.20
2018-03-07T02:46:54.345Z,20.30
2018-03-07T02:49:21.885Z,21.60
2018-03-07T02:51:49.405Z,21.13
2018-03-07T02:54:16.950Z,21.07
2018-03-07T02:56:45.242Z,22.00
2018-03-07T02:59:13.554Z,21.27
2018-03-07T03:01:41.068Z,22.40
2018-03-07T03:04:09.370Z,21.57
2018-03-07T03:06:36.901Z,20.43
2018-03-07T03:09:05.230Z,19.73
2018-03-07T03:11:32.767Z,21.40
2018-03-07T03:14:00.321Z,19.00
2018-03-07T03:16:27.853Z,20.30
2018-03-07T03:18:55.368Z,20.63
2018-03-07T03:21:22.901Z,18.53
2018-03-07T03:23:51.184Z,20.97
2018-03-07T03:26:18.716Z,20.13
2018-03-07T03:28:46.224Z,19.87
2018-03-07T03:31:13.755Z,20.67
2018-03-07T03:33:42.032Z,19.90
2018-03-07T03:36:10.356Z,18.97
2018-03-07T03:38:37.881Z,20.47
2018-03-07T03:41:05.391Z,19.50
2018-03-07T03:43:32.919Z,20.10
2018-03-07T03:46:00.453Z,18.57
2018-03-07T03:48:27.998Z,20.03
2018-03-07T03:50:56.315Z,20.20
2018-03-07T03:53:23.850Z,19.50
2018-03-07T03:55:51.381Z,19.10
2018-03-07T03:58:18.923Z,18.43
2018-03-07T04:00:46.443Z,20.50
2018-03-07T04:03:14.002Z,19.10
2018-03-07T04:05:41.527Z,18.67
2018-03-07T04:08:09.049Z,18.63
2018-03-07T04:10:36.575Z,18.80
2018-03-07T04:13:04.087Z,18.80
2018-03-07T04:15:31.635Z,18.30
2018-03-07T04:17:59.170Z,18.17
2018-03-07T04:20:26.698Z,18.27
2018-03-07T04:22:55.020Z,18.63
2018-03-07T04:25:22.569Z,17.70
2018-03-07T04:27:50.108Z,18.33
2018-03-07T04:30:18.400Z,19.83
2018-03-07T04:32:45.924Z,18.27
2018-03-07T04:35:13.472Z,19.20
2018-03-07T04:37:40.992Z,17.33
2018-03-07T04:40:08.501Z,18.30
2018-03-07T04:42:36.023Z,17.10
2018-03-07T04:45:03.545Z,18.17
2018-03-07T04:47:31.846Z,16.30
2018-03-07T04:49:59.357Z,18.60
2018-03-07T04:52:26.897Z,18.47
2018-03-07T04:54:54.416Z,16.70
2018-03-07T04:57:21.948Z,17.53
2018-03-07T04:59:50.227Z,18.20
2018-03-07T05:02:18.548Z,15.97
2018-03-07T05:04:46.063Z,17.83
2018-03-07T05:07:14.356Z,20.60
2018-03-07T05:09:42.671Z,15.77
2018-03-07T05:12:11.001Z,16.63
2018-03-07T05:14:39.295Z,17.33
2018-03-07T05:17:06.823Z,16.10
2018-03-07T05:19:34.354Z,17.07
2018-03-07T05:22:01.863Z,16.73
2018-03-07T05:24:30.172Z,17.53
2018-03-07T05:26:57.683Z,16.93
2018-03-07T05:29:25.210Z,16.73
2018-03-07T05:31:52.727Z,17.00
2018-03-07T05:34:21.058Z,15.93
2018-03-07T05:36:49.978Z,17.17
2018-03-07T05:39:18.814Z,16.70
2018-03-07T05:41:47.694Z,17.10
2018-03-07T05:44:16.553Z,16.53
2018-03-07T05:46:45.426Z,16.20
2018-03-07T05:49:14.307Z,15.73
2018-03-07T05:51:43.180Z,16.70
2018-03-07T05:54:12.063Z,15.80
2018-03-07T05:56:40.969Z,16.53
2018-03-07T05:59:09.850Z,16.07
2018-03-07T06:01:38.792Z,15.67
2018-03-07T06:04:07.666Z,16.10
2018-03-07T06:06:36.584Z,16.00
2018-03-07T06:09:05.488Z,13.73
2018-03-07T06:11:34.366Z,15.23
2018-03-07T06:14:03.276Z,14.23
2018-03-07T06:16:32.149Z,15.30
2018-03-07T06:19:01.067Z,15.63
2018-03-07T06:21:29.964Z,14.77
2018-03-07T06:23:58.918Z,15.90
2018-03-07T06:26:27.791Z,13.83
2018-03-07T06:28:56.676Z,16.40
2018-03-07T06:31:25.536Z,14.97
2018-03-07T06:33:54.413Z,15.20
2018-03-07T06:36:23.290Z,14.60
2018-03-07T06:38:52.243Z,15.50
2018-03-07T06:41:21.133Z,14.07
2018-03-07T06:43:50.032Z,14.93
2018-03-07T06:46:18.939Z,14.80
2018-03-07T06:48:47.826Z,15.60
2018-03-07T06:51:16.706Z,14.67
2018-03-07T06:53:45.587Z,14.23
2018-03-07T06:56:14.476Z,13.87
2018-03-07T06:58:43.371Z,14.17
2018-03-07T07:01:12.295Z,13.80
2018-03-07T07:03:41.182Z,14.57
2018-03-07T07:06:10.130Z,14.70
2018-03-07T07:08:39.031Z,14.10
2018-03-07T07:11:07.936Z,13.83
2018-03-07T07:13:36.860Z,14.57
2018-03-07T07:16:05.806Z,14.33
2018-03-07T07:18:34.713Z,14.57
2018-03-07T07:21:03.605Z,13.60
2018-03-07T07:23:32.494Z,14.07
2018-03-07T07:26:01.373Z,13.30
2018-03-07T07:28:30.291Z,14.53
2018-03-07T07:30:59.171Z,13.50
2018-03-07T07:33:28.070Z,13.77
2018-03-07T07:35:56.974Z,12.60
2018-03-07T07:38:25.901Z,14.47
2018-03-07T07:40:54.818Z,14.30
2018-03-07T07:43:23.748Z,14.60
2018-03-07T07:45:52.632Z,14.07
2018-03-07T07:48:21.558Z,13.17
2018-03-07T07:50:50.435Z,13.43
2018-03-07T07:53:19.314Z,13.33
2018-03-07T07:55:48.208Z,13.67
2018-03-07T07:58:17.111Z,13.50
2018-03-07T08:00:46.053Z,13.50
2018-03-07T08:03:15.084Z,12.60
2018-03-07T08:05:44.005Z,14.07
2018-03-07T08:08:12.893Z,14.60
2018-03-07T08:10:41.775Z,14.23
2018-03-07T08:13:10.661Z,14.50
2018-03-07T08:15:39.559Z,12.37
2018-03-07T08:18:08.541Z,13.53
2018-03-07T08:20:37.439Z,16.20
2018-03-07T08:23:06.324Z,13.90
2018-03-07T08:25:35.258Z,12.73
2018-03-07T08:28:04.194Z,15.50
2018-03-07T08:30:33.077Z,13.50
2018-03-07T08:33:01.964Z,13.83
2018-03-07T08:35:30.860Z,12.53
2018-03-07T08:37:59.752Z,13.00
2018-03-07T08:40:28.655Z,13.37
2018-03-07T08:42:57.552Z,14.03
2018-03-07T08:45:26.460Z,14.40
2018-03-07T08:47:55.346Z,12.60
2018-03-07T08:50:24.227Z,15.17
2018-03-07T08:52:53.122Z,13.63
2018-03-07T08:55:21.999Z,14.27
2018-03-07T08:57:50.908Z,16.20
2018-03-07T09:00:19.798Z,14.90
2018-03-07T09:02:48.711Z,14.80
2018-03-07T09:05:17.603Z,12.40
2018-03-07T09:07:46.510Z,13.67
2018-03-07T09:10:15.404Z,13.70
2018-03-07T09:12:44.344Z,14.10
2018-03-07T09:15:13.232Z,13.17
2018-03-07T09:17:42.204Z,14.77
2018-03-07T09:20:11.071Z,13.50
2018-03-07T09:22:39.958Z,12.90
2018-03-07T09:25:08.851Z,15.00
2018-03-07T09:27:37.741Z,15.10
2018-03-07T09:30:06.645Z,15.20
2018-03-07T09:32:35.534Z,15.10
2018-03-07T09:35:04.445Z,14.10
2018-03-07T09:37:33.319Z,13.93
2018-03-07T09:40:02.214Z,15.50
2018-03-07T09:42:31.103Z,14.80
2018-03-07T09:44:59.980Z,14.60
2018-03-07T09:47:28.870Z,15.10
2018-03-07T09:49:57.773Z,14.13
2018-03-07T09:52:26.660Z,14.37
2018-03-07T09:54:55.567Z,14.87
2018-03-07T09:57:24.465Z,14.67
2018-03-07T09:59:53.342Z,13.70
2018-03-07T10:02:22.243Z,14.50
2018-03-07T10:04:51.126Z,13.03
2018-03-07T10:07:20.035Z,13.87
2018-03-07T10:09:48.905Z,13.57
2018-03-07T10:12:17.802Z,14.80
2018-03-07T10:14:46.687Z,13.70
2018-03-07T10:17:15.588Z,12.50
2018-03-07T10:19:44.481Z,12.97
2018-03-07T10:22:13.371Z,13.70
2018-03-07T10:24:42.276Z,13.50
2018-03-07T10:27:11.250Z,13.20
2018-03-07T10:29:40.137Z,13.33
2018-03-07T10:32:09.064Z,14.10
2018-03-07T10:34:38.028Z,13.07
2018-03-07T10:37:06.942Z,12.83
2018-03-07T10:39:35.824Z,13.10
2018-03-07T10:42:04.844Z,13.67
2018-03-07T10:44:33.731Z,14.27
2018-03-07T10:47:02.637Z,12.20
2018-03-07T10:49:31.575Z,13.60
2018-03-07T10:52:00.535Z,13.03
2018-03-07T10:54:29.438Z,12.70
2018-03-07T10:56:58.410Z,12.53
2018-03-07T10:59:27.303Z,12.87
2018-03-07T11:01:56.201Z,13.17
2018-03-07T11:04:25.129Z,12.90
2018-03-07T11:06:54.068Z,13.23
2018-03-07T11:09:22.993Z,12.53
2018-03-07T11:11:51.915Z,10.63
2018-03-07T11:14:20.818Z,12.70
2018-03-07T11:16:49.704Z,13.00
2018-03-07T11:19:18.599Z,10.97
2018-03-07T11:21:47.491Z,11.47
2018-03-07T11:24:16.421Z,11.97
2018-03-07T11:26:45.299Z,11.30
2018-03-07T11:29:14.263Z,12.70
2018-03-07T11:31:43.159Z,11.73
2018-03-07T11:34:12.064Z,12.10
2018-03-07T11:36:41.041Z,11.40
2018-03-07T11:39:09.976Z,12.00
2018-03-07T11:41:38.861Z,11.63
2018-03-07T11:44:07.785Z,12.83
2018-03-07T11:46:36.709Z,11.30
2018-03-07T11:49:05.633Z,12.40
2018-03-07T11:51:34.523Z,12.47
2018-03-07T11:54:03.418Z,12.27
2018-03-07T11:56:32.329Z,12.00
2018-03-07T11:59:01.214Z,11.50
2018-03-07T12:01:30.126Z,11.30
2018-03-07T12:03:59.179Z,13.07
2018-03-07T12:06:28.132Z,11.53
2018-03-07T12:08:57.020Z,11.27
2018-03-07T12:11:25.925Z,11.97
2018-03-07T12:13:54.827Z,11.80
2018-03-07T12:16:23.743Z,11.20
2018-03-07T12:18:52.607Z,12.17
2018-03-07T12:21:21.487Z,10.90
2018-03-07T12:23:50.389Z,12.10
2018-03-07T12:26:19.295Z,12.30
2018-03-07T12:28:48.215Z,12.80
2018-03-07T12:31:17.185Z,12.23
2018-03-07T12:33:46.083Z,11.53
2018-03-07T12:36:14.968Z,12.17
2018-03-07T12:38:43.904Z,10.70
2018-03-07T12:41:12.786Z,11.40
2018-03-07T12:43:41.745Z,11.27
2018-03-07T12:46:10.635Z,10.97
2018-03-07T12:48:39.548Z,11.07
2018-03-07T12:51:08.451Z,11.30
2018-03-07T12:53:37.768Z,12.53
2018-03-07T12:56:06.679Z,13.23
2018-03-07T12:58:35.559Z,13.60
2018-03-07T13:01:04.507Z,12.90
2018-03-07T13:03:33.416Z,12.47
2018-03-07T13:06:02.365Z,12.33
2018-03-07T13:08:31.267Z,12.00
2018-03-07T13:11:00.202Z,14.03
2018-03-07T13:13:29.070Z,13.80
2018-03-07T13:15:57.979Z,12.83
2018-03-07T13:18:26.873Z,12.83
2018-03-07T13:20:55.800Z,13.47
2018-03-07T13:23:24.679Z,13.07
2018-03-07T13:25:53.585Z,13.27
2018-03-07T13:28:22.990Z,13.30
2018-03-07T13:30:51.865Z,13.97
2018-03-07T13:33:20.755Z,13.00
2018-03-07T13:35:49.614Z,13.20
2018-03-07T13:38:18.517Z,12.50
2018-03-07T13:40:47.443Z,12.03
2018-03-07T13:43:16.376Z,12.53
2018-03-07T13:45:45.249Z,13.73
2018-03-07T13:48:14.251Z,14.03
2018-03-07T13:50:43.234Z,14.53
2018-03-07T13:53:12.091Z,15.50
2018-03-07T13:55:41.025Z,16.17
2018-03-07T13:58:09.917Z,16.07
2018-03-07T14:00:38.804Z,14.57
2018-03-07T14:03:07.702Z,14.80
2018-03-07T14:05:36.589Z,14.10
2018-03-07T14:08:05.486Z,14.30
2018-03-07T14:10:34.362Z,15.27
2018-03-07T14:13:03.283Z,15.10
2018-03-07T14:15:32.189Z,15.70
2018-03-07T14:18:01.148Z,14.53
2018-03-07T14:20:30.059Z,16.60
2018-03-07T14:22:58.980Z,14.93
2018-03-07T14:25:27.899Z,13.80
2018-03-07T14:27:56.810Z,16.80
2018-03-07T14:30:25.709Z,17.10
2018-03-07T14:32:54.610Z,16.23
2018-03-07T14:35:23.514Z,17.87
2018-03-07T14:37:52.380Z,17.53
2018-03-07T14:40:21.285Z,18.07
2018-03-07T14:42:50.187Z,16.77
2018-03-07T14:45:19.100Z,17.13
2018-03-07T14:47:47.979Z,17.67
2018-03-07T14:50:16.869Z,19.00
2018-03-07T14:52:45.744Z,20.73
2018-03-07T14:55:14.658Z,17.60
2018-03-07T14:57:43.559Z,17.33
2018-03-07T15:00:12.468Z,20.80
2018-03-07T15:02:41.366Z,17.47
2018-03-07T15:05:10.245Z,16.87
2018-03-07T15:07:39.193Z,18.27
2018-03-07T15:10:08.071Z,20.23
2018-03-07T15:12:36.967Z,16.87
2018-03-07T15:15:05.849Z,17.27
2018-03-07T15:17:34.939Z,17.70
2018-03-07T15:20:03.863Z,17.23
2018-03-07T15:22:32.809Z,19.10
2018-03-07T15:25:01.720Z,18.37
2018-03-07T15:27:30.635Z,20.33
2018-03-07T15:29:59.525Z,19.90
2018-03-07T15:32:28.445Z,18.53
2018-03-07T15:34:57.339Z,20.27
2018-03-07T15:37:26.234Z,17.70
2018-03-07T15:39:55.122Z,19.20
2018-03-07T15:42:23.987Z,19.70
2018-03-07T15:44:52.898Z,19.03
2018-03-07T15:47:21.779Z,18.97
2018-03-07T15:49:50.676Z,17.00
2018-03-07T15:52:19.562Z,21.10
2018-03-07T15:54:48.478Z,18.13
2018-03-07T15:57:17.362Z,19.53
2018-03-07T15:59:46.246Z,18.97
2018-03-07T16:02:15.129Z,20.90
2018-03-07T16:04:44.014Z,19.40
2018-03-07T16:07:12.899Z,20.60
2018-03-07T16:09:41.802Z,19.67
2018-03-07T16:12:10.699Z,19.50
2018-03-07T16:14:39.638Z,17.30
2018-03-07T16:17:08.642Z,19.77
2018-03-07T16:19:38.189Z,18.77
2018-03-07T16:22:07.067Z,18.97
2018-03-07T16:24:35.978Z,22.17
2018-03-07T16:27:04.853Z,18.37
2018-03-07T16:29:33.768Z,19.43
2018-03-07T16:32:02.652Z,18.50
2018-03-07T16:34:31.528Z,18.57
2018-03-07T16:37:00.414Z,19.37
2018-03-07T16:39:29.286Z,19.67
2018-03-07T16:41:58.168Z,19.57
2018-03-07T16:44:27.037Z,19.07
2018-03-07T16:46:55.925Z,18.93
2018-03-07T16:49:24.788Z,19.17
2018-03-07T16:51:53.733Z,18.70
2018-03-07T16:54:22.616Z,18.20
2018-03-07T16:56:51.504Z,19.70
2018-03-07T16:59:20.366Z,19.47
2018-03-07T17:01:49.308Z,18.77
2018-03-07T17:04:18.189Z,20.10
2018-03-07T17:06:47.089Z,20.10
2018-03-07T17:09:15.952Z,18.93
2018-03-07T17:11:44.813Z,19.53
2018-03-07T17:14:13.755Z,20.00
2018-03-07T17:16:42.627Z,18.97
2018-03-07T17:19:11.555Z,21.87
2018-03-07T17:21:40.427Z,20.37
2018-03-07T17:24:09.335Z,20.23
2018-03-07T17:26:38.216Z,18.27
2018-03-07T17:29:07.095Z,19.03
2018-03-07T17:31:35.959Z,18.40
2018-03-07T17:34:05.016Z,19.97
2018-03-07T17:36:33.885Z,19.33
2018-03-07T17:39:02.780Z,19.27
2018-03-07T17:41:31.661Z,20.87
2018-03-07T17:44:00.540Z,19.80
2018-03-07T17:46:29.419Z,21.50
2018-03-07T17:48:58.342Z,19.77
2018-03-07T17:51:27.224Z,19.53
2018-03-07T17:53:56.100Z,20.97
2018-03-07T17:56:24.999Z,21.07
2018-03-07T17:58:53.873Z,19.90
2018-03-07T18:01:22.762Z,20.23
2018-03-07T18:03:51.627Z,20.43
2018-03-07T18:06:20.518Z,20.13
2018-03-07T18:08:49.382Z,19.17
2018-03-07T18:11:18.268Z,17.83
2018-03-07T18:13:47.127Z,20.33
2018-03-07T18:16:16.011Z,19.70
2018-03-07T18:18:44.881Z,20.23
2018-03-07T18:21:13.853Z,20.03
2018-03-07T18:23:42.733Z,21.73
2018-03-07T18:26:11.609Z,20.00
2018-03-07T18:28:40.469Z,21.07
2018-03-07T18:31:09.367Z,20.60
2018-03-07T18:33:38.230Z,19.93
2018-03-07T18:36:07.109Z,19.40
2018-03-07T18:38:35.986Z,19.97
2018-03-07T18:41:04.853Z,20.10
2018-03-07T18:43:33.740Z,20.40
2018-03-07T18:46:02.618Z,21.47
2018-03-07T18:48:31.505Z,20.20
2018-03-07T18:51:00.368Z,20.83
2018-03-07T18:53:29.255Z,20.13
2018-03-07T18:55:58.119Z,18.47
2018-03-07T18:58:26.995Z,19.57
2018-03-07T19:00:55.871Z,19.70
2018-03-07T19:03:24.764Z,18.70
2018-03-07T19:05:53.668Z,19.00
2018-03-07T19:08:22.543Z,19.40
2018-03-07T19:10:54.197Z,19.87
2018-03-07T19:13:23.087Z,21.67
2018-03-07T19:15:53.784Z,22.33
2018-03-07T19:18:22.701Z,18.23
2018-03-07T19:20:51.565Z,20.37
2018-03-07T19:23:20.436Z,19.10
2018-03-07T19:25:49.321Z,19.30
2018-03-07T19:28:18.190Z,19.93
2018-03-07T19:30:47.079Z,23.07
2018-03-07T19:33:15.947Z,24.03
2018-03-07T19:35:44.831Z,20.57
2018-03-07T19:38:13.756Z,24.17
2018-03-07T19:40:42.639Z,21.83
2018-03-07T19:43:11.514Z,21.27
2018-03-07T19:45:40.402Z,24.10
2018-03-07T19:48:09.277Z,22.23
2018-03-07T19:50:38.247Z,21.63
2018-03-07T19:53:07.115Z,20.03
2018-03-07T19:55:36.054Z,22.53
2018-03-07T19:58:04.933Z,22.17
2018-03-07T20:00:33.801Z,23.07
2018-03-07T20:03:02.693Z,24.23
2018-03-07T20:05:31.554Z,22.13
2018-03-07T20:08:00.457Z,24.27
2018-03-07T20:10:29.332Z,24.57
2018-03-07T20:12:58.207Z,22.97
2018-03-07T20:15:27.092Z,24.17
2018-03-07T20:17:55.969Z,23.53
2018-03-07T20:20:24.841Z,22.80
2018-03-07T20:22:53.768Z,22.40
2018-03-07T20:25:22.642Z,23.20
2018-03-07T20:27:51.532Z,22.40
2018-03-07T20:30:20.401Z,22.33
2018-03-07T20:32:49.285Z,24.70
2018-03-07T20:35:18.142Z,21.03
2018-03-07T20:37:47.105Z,24.13
2018-03-07T20:40:15.969Z,23.20
2018-03-07T20:42:44.870Z,21.83
2018-03-07T20:45:13.776Z,25.60
2018-03-07T20:47:42.668Z,23.00
2018-03-07T20:50:11.550Z,21.57
2018-03-07T20:52:40.410Z,21.57
2018-03-07T20:55:09.316Z,21.83
2018-03-07T20:57:38.224Z,21.57
2018-03-07T21:00:07.118Z,22.23
2018-03-07T21:02:35.984Z,22.40
2018-03-07T21:05:04.876Z,21.20
2018-03-07T21:07:33.747Z,24.23
2018-03-07T21:10:02.622Z,23.90
2018-03-07T21:12:31.488Z,22.30
2018-03-07T21:15:00.381Z,23.60
2018-03-07T21:17:29.251Z,24.60
2018-03-07T21:19:58.164Z,21.67
2018-03-07T21:22:27.023Z,23.50
2018-03-07T21:24:55.896Z,23.43
2018-03-07T21:27:24.768Z,21.77
2018-03-07T21:29:53.673Z,23.03
2018-03-07T21:32:22.535Z,21.27
2018-03-07T21:34:51.441Z,22.87
2018-03-07T21:37:20.628Z,21.50
2018-03-07T21:39:49.514Z,22.80
2018-03-07T21:42:18.379Z,24.23
2018-03-07T21:44:47.285Z,22.87
2018-03-07T21:47:16.152Z,24.97
2018-03-07T21:49:45.035Z,23.77
2018-03-07T21:52:13.946Z,23.43
2018-03-07T21:54:42.816Z,22.67
2018-03-07T21:57:11.707Z,23.20
2018-03-07T21:59:40.571Z,22.10
2018-03-07T22:02:09.468Z,26.00
2018-03-07T22:04:38.327Z,24.93
2018-03-07T22:07:07.207Z,21.93
2018-03-07T22:09:36.088Z,24.90
2018-03-07T22:12:04.972Z,25.27
2018-03-07T22:14:33.870Z,23.00
2018-03-07T22:17:02.777Z,25.17
2018-03-07T22:19:31.917Z,24.07
2018-03-07T22:22:00.796Z,24.80
2018-03-07T22:24:29.730Z,22.47
2018-03-07T22:26:58.610Z,23.00
2018-03-07T22:29:27.497Z,23.40
2018-03-07T22:31:56.359Z,24.17
2018-03-07T22:34:25.282Z,21.40
2018-03-07T22:36:54.143Z,21.63
2018-03-07T22:39:23.036Z,23.00
2018-03-07T22:41:51.921Z,23.43
2018-03-07T22:44:20.803Z,22.27
2018-03-07T22:46:49.702Z,21.67
2018-03-07T22:49:18.573Z,22.63
2018-03-07T22:51:47.438Z,22.00
2018-03-07T22:54:16.326Z,23.47
2018-03-07T22:56:45.196Z,20.27
2018-03-07T22:59:14.093Z,21.43
2018-03-07T23:01:42.968Z,23.53
2018-03-07T23:04:11.868Z,20.60
2018-03-07T23:06:40.727Z,22.63
2018-03-07T23:09:09.596Z,22.43
2018-03-07T23:11:38.475Z,20.73
2018-03-07T23:14:07.348Z,22.67
2018-03-07T23:16:36.223Z,24.30
2018-03-07T23:19:05.097Z,22.23
2018-03-07T23:21:33.975Z,22.97
2018-03-07T23:24:02.860Z,24.10
2018-03-07T23:26:31.746Z,20.20
2018-03-07T23:29:00.612Z,26.60
2018-03-07T23:31:29.513Z,22.30
2018-03-07T23:33:58.386Z,20.20
2018-03-07T23:36:27.288Z,24.33
2018-03-07T23:38:56.166Z,22.53
2018-03-07T23:41:25.073Z,24.10
2018-03-07T23:43:53.939Z,23.17
2018-03-07T23:46:22.795Z,22.50
2018-03-07T23:48:51.680Z,23.07
2018-03-07T23:51:20.583Z,22.90
2018-03-07T23:53:49.472Z,24.50
2018-03-07T23:56:18.344Z,22.17
2018-03-07T23:58:47.243Z,22.40
